Bezoek onze andere website:

Template documentation
and downloads

And another site



METAR rapporten vliegvelden

   
EBAW - Antwerp
Gewijzigd: 23-10-2018 15:20
Licht bewolkt  
Licht bewolkt  
   Wind: Westen 31.5 km/h
Wind: Westen 31.5 km/h
Temperatuur: 15°C
Dauwpunt: 8°C
Vochtigheid: 63%
Barometer: 1025 hPa
Bewolking: Licht bewolkt
Zicht: meer dan 10 km
Bewolking: Licht bewolkt 2500 ft
EBAW 231320Z 27017KT 9999 FEW025 15/08 Q1025 NOSIG
EBLG - Li├Ęge
Gewijzigd: 23-10-2018 15:20
Licht bewolkt  
Licht bewolkt  
   Wind: Westen 29.6 km/h
Wind: Westen 29.6 km/h
Temperatuur: 12°C
Dauwpunt: 6°C
Vochtigheid: 67%
Barometer: 1025 hPa
Bewolking: Licht bewolkt
Zicht: meer dan 10 km
Bewolking: Licht bewolkt 2200 ft
EBLG 231320Z 27016KT 9999 FEW022 12/06 Q1025 NOSIG
EBCV - Mons/Bergen
Gewijzigd: 23-10-2018 15:25
Helder  
Helder  
   Wind: Westen 25.9 km/h
Wind: Westen 25.9 km/h
Temperatuur: 15°C
Dauwpunt: 5°C
Vochtigheid: 51%
Barometer: 1027 hPa
Bewolking: Helder
Zicht: meer dan 10 km
Bewolking: Helder
EBCV 231325Z AUTO 28014KT 9999 NCD 15/05 Q1027 BLU
EHBK - Maastricht
Gewijzigd: 23-10-2018 15:25
Grotendeels bewolkt  
Grotendeels bewolkt  
   Wind: WZW 22.2 km/h
Wind: WZW 22.2 km/h
Temperatuur: 13°C
Dauwpunt: 7°C
Vochtigheid: 67%
Barometer: 1024 hPa
Bewolking: Grotendeels bewolkt
Zicht: meer dan 10 km
Bewolking: Grotendeels bewolkt 2400 ft
EHBK 231325Z AUTO 25012KT 220V310 9999 BKN024 13/07 Q1024 NOSIG
ELLX - Luxemburg
Gewijzigd: 23-10-2018 15:20
Helder  
Helder  
   Wind: WZW 27.8 km/h
Wind: WZW 27.8 km/h
Temperatuur: 11°C
Dauwpunt: 4°C
Vochtigheid: 62%
Barometer: 1026 hPa
Zicht: meer dan 10 km
Bewolking: Helder
ELLX 231320Z 25015KT CAVOK 11/04 Q1026 NOSIG
EBOS - Oostende
Gewijzigd: 23-10-2018 15:20
Licht bewolkt  
Licht bewolkt  
   Wind: Westen 35.2 km/h
Wind: Westen 35.2 km/h
Temperatuur: 14°C
Dauwpunt: 8°C
Vochtigheid: 67%
Barometer: 1027 hPa
Bewolking: Licht bewolkt
Zicht: meer dan 10 km
Bewolking: Licht bewolkt 2000 ft
EBOS 231320Z 28019KT 9999 FEW020 14/08 Q1027 NOSIG

Script ontwikkeld door  Saratoga-weather.org Aangepast voor de template door  Weerstation Leuven